createdAt,value
2022-11-14T00:01:20.788Z,7.43
2022-11-14T00:04:08.399Z,7.50
2022-11-14T00:06:56.074Z,7.48
2022-11-14T00:09:43.661Z,7.26
2022-11-14T00:12:30.964Z,7.41
2022-11-14T00:15:18.756Z,7.36
2022-11-14T00:18:08.055Z,7.30
2022-11-14T00:20:55.701Z,7.39
2022-11-14T00:23:43.494Z,7.30
2022-11-14T00:26:31.585Z,7.31
2022-11-14T00:29:19.252Z,7.21
2022-11-14T00:32:08.054Z,7.32
2022-11-14T00:34:55.573Z,7.10
2022-11-14T00:37:42.773Z,7.10
2022-11-14T00:40:30.417Z,7.22
2022-11-14T00:43:18.077Z,7.02
2022-11-14T00:46:06.706Z,7.00
2022-11-14T00:48:54.217Z,7.01
2022-11-14T00:51:41.726Z,6.87
2022-11-14T00:54:29.544Z,6.76
2022-11-14T00:57:17.406Z,6.85
2022-11-14T01:00:07.619Z,6.83
2022-11-14T01:02:58.371Z,6.65
2022-11-14T01:05:48.301Z,6.66
2022-11-14T01:08:36.257Z,6.77
2022-11-14T01:11:24.962Z,6.65
2022-11-14T01:14:13.135Z,6.64
2022-11-14T01:17:00.590Z,6.60
2022-11-14T01:19:47.955Z,6.42
2022-11-14T01:22:35.421Z,6.62
2022-11-14T01:25:22.843Z,6.41
2022-11-14T01:28:12.799Z,6.33
2022-11-14T01:31:14.707Z,6.38
2022-11-14T01:34:02.177Z,6.36
2022-11-14T01:36:49.916Z,6.37
2022-11-14T01:39:37.660Z,6.29
2022-11-14T01:42:27.435Z,6.29
2022-11-14T01:45:49.967Z,6.22
2022-11-14T01:48:48.631Z,6.10
2022-11-14T01:51:42.204Z,6.16
2022-11-14T01:54:35.553Z,6.16
2022-11-14T01:57:26.195Z,6.10
2022-11-14T02:00:15.587Z,6.02
2022-11-14T02:03:03.977Z,6.00
2022-11-14T02:05:53.056Z,6.02
2022-11-14T02:08:41.057Z,6.15
2022-11-14T02:11:31.903Z,6.13
2022-11-14T02:14:19.311Z,6.07
2022-11-14T02:17:28.354Z,6.06
2022-11-14T02:20:14.471Z,6.04
2022-11-14T02:23:02.198Z,5.99
2022-11-14T02:25:50.126Z,5.93
2022-11-14T02:28:37.469Z,5.97
2022-11-14T02:31:24.982Z,5.92
2022-11-14T02:34:14.737Z,6.18
2022-11-14T02:37:02.554Z,6.03
2022-11-14T02:39:50.176Z,5.92
2022-11-14T02:42:38.071Z,5.74
2022-11-14T02:45:26.493Z,5.69
2022-11-14T02:48:14.069Z,5.69
2022-11-14T02:51:01.267Z,5.82
2022-11-14T02:53:48.883Z,5.77
2022-11-14T02:56:36.306Z,5.86
2022-11-14T02:59:23.738Z,5.74
2022-11-14T03:02:11.154Z,5.63
2022-11-14T03:04:58.459Z,5.68
2022-11-14T03:07:45.984Z,5.56
2022-11-14T03:10:33.615Z,5.63
2022-11-14T03:13:21.037Z,5.57
2022-11-14T03:16:11.227Z,5.62
2022-11-14T03:18:58.684Z,5.40
2022-11-14T03:21:46.030Z,5.46
2022-11-14T03:27:39.483Z,5.41
2022-11-14T03:30:26.895Z,5.38
2022-11-14T03:33:14.506Z,5.46
2022-11-14T03:36:02.113Z,5.51
2022-11-14T03:38:49.512Z,5.34
2022-11-14T03:41:36.862Z,5.50
2022-11-14T03:44:24.073Z,5.48
2022-11-14T03:47:11.477Z,5.52
2022-11-14T03:49:59.039Z,5.28
2022-11-14T03:52:47.960Z,5.44
2022-11-14T03:55:35.184Z,5.48
2022-11-14T03:58:22.883Z,5.40
2022-11-14T04:01:10.578Z,5.26
2022-11-14T04:03:57.717Z,5.23
2022-11-14T04:06:45.950Z,5.15
2022-11-14T04:09:33.654Z,5.27
2022-11-14T04:12:21.152Z,5.28
2022-11-14T04:15:09.175Z,5.25
2022-11-14T04:17:56.611Z,5.35
2022-11-14T04:20:43.979Z,5.34
2022-11-14T04:23:31.045Z,5.20
2022-11-14T04:26:18.836Z,5.27
2022-11-14T04:29:06.061Z,5.09
2022-11-14T04:31:53.430Z,5.25
2022-11-14T04:34:40.892Z,5.27
2022-11-14T04:37:28.693Z,5.22
2022-11-14T04:40:16.377Z,5.20
2022-11-14T04:43:03.797Z,5.17
2022-11-14T04:45:51.308Z,5.20
2022-11-14T04:48:39.068Z,5.03
2022-11-14T04:51:27.128Z,4.90
2022-11-14T04:54:14.189Z,5.09
2022-11-14T04:57:01.767Z,4.82
2022-11-14T04:59:49.623Z,4.82
2022-11-14T05:02:37.024Z,4.82
2022-11-14T05:05:24.067Z,4.79
2022-11-14T05:08:11.703Z,4.84
2022-11-14T05:10:59.358Z,4.71
2022-11-14T05:13:47.341Z,4.88
2022-11-14T05:16:34.176Z,4.83
2022-11-14T05:19:22.114Z,4.69
2022-11-14T05:22:11.352Z,4.77
2022-11-14T05:24:58.670Z,4.68
2022-11-14T05:27:46.030Z,4.75
2022-11-14T05:30:33.807Z,4.78
2022-11-14T05:33:21.008Z,4.80
2022-11-14T05:36:13.623Z,4.80
2022-11-14T05:39:01.055Z,4.75
2022-11-14T05:41:48.986Z,4.76
2022-11-14T05:44:36.938Z,4.76
2022-11-14T05:47:24.156Z,4.76
2022-11-14T05:50:11.933Z,4.63
2022-11-14T05:52:59.496Z,4.71
2022-11-14T05:55:47.623Z,4.65
2022-11-14T05:58:36.042Z,4.63
2022-11-14T06:01:23.939Z,4.52
2022-11-14T06:04:14.639Z,4.63
2022-11-14T06:07:02.155Z,4.60
2022-11-14T06:09:49.759Z,4.46
2022-11-14T06:12:37.485Z,4.47
2022-11-14T06:15:24.908Z,4.41
2022-11-14T06:18:12.629Z,4.46
2022-11-14T06:21:04.606Z,4.52
2022-11-14T06:23:52.392Z,4.50
2022-11-14T06:26:39.762Z,4.51
2022-11-14T06:29:32.645Z,4.65
2022-11-14T06:32:16.899Z,4.45
2022-11-14T06:35:04.644Z,4.46
2022-11-14T06:37:52.245Z,4.52
2022-11-14T06:40:39.388Z,4.52
2022-11-14T06:43:27.350Z,4.36
2022-11-14T06:46:17.947Z,4.24
2022-11-14T06:49:05.425Z,4.27
2022-11-14T06:51:53.301Z,4.47
2022-11-14T06:54:40.455Z,4.40
2022-11-14T06:57:28.604Z,4.24
2022-11-14T07:00:16.657Z,4.43
2022-11-14T07:03:04.079Z,4.43
2022-11-14T07:05:51.510Z,4.43
2022-11-14T07:08:39.385Z,4.46
2022-11-14T07:11:30.107Z,4.41
2022-11-14T07:14:17.651Z,4.52
2022-11-14T07:17:05.331Z,4.53
2022-11-14T07:19:52.712Z,4.39
2022-11-14T07:22:40.371Z,4.42
2022-11-14T07:25:27.869Z,4.49
2022-11-14T07:28:15.161Z,4.50
2022-11-14T07:31:06.073Z,4.59
2022-11-14T07:33:53.758Z,4.58
2022-11-14T07:36:41.083Z,4.57
2022-11-14T07:39:28.724Z,4.70
2022-11-14T07:42:15.963Z,4.65
2022-11-14T07:45:03.424Z,4.68
2022-11-14T07:47:50.781Z,4.87
2022-11-14T07:50:38.704Z,4.90
2022-11-14T07:53:25.853Z,4.88
2022-11-14T07:56:13.607Z,5.03
2022-11-14T07:59:00.887Z,5.04
2022-11-14T08:01:48.320Z,5.15
2022-11-14T08:04:35.996Z,5.07
2022-11-14T08:07:23.249Z,5.27
2022-11-14T08:10:14.167Z,5.48
2022-11-14T08:13:30.355Z,5.59
2022-11-14T08:15:52.957Z,5.90
2022-11-14T08:18:40.260Z,5.90
2022-11-14T08:21:27.764Z,5.99
2022-11-14T08:24:15.393Z,6.01
2022-11-14T08:27:02.783Z,6.20
2022-11-14T08:29:51.084Z,6.58
2022-11-14T08:32:38.797Z,6.56
2022-11-14T08:35:26.427Z,6.91
2022-11-14T08:38:14.227Z,6.98
2022-11-14T08:41:04.177Z,7.23
2022-11-14T08:43:51.437Z,7.50
2022-11-14T08:46:39.546Z,7.59
2022-11-14T08:49:27.423Z,7.76
2022-11-14T08:52:16.852Z,7.97
2022-11-14T08:55:03.743Z,8.10
2022-11-14T08:57:54.650Z,7.75
2022-11-14T09:00:42.286Z,7.90
2022-11-14T09:03:30.054Z,8.08
2022-11-14T09:06:17.228Z,8.20
2022-11-14T09:09:04.957Z,8.34
2022-11-14T09:11:53.102Z,8.30
2022-11-14T09:14:40.489Z,8.35
2022-11-14T09:17:27.853Z,8.62
2022-11-14T09:20:15.965Z,8.66
2022-11-14T09:23:04.380Z,8.69
2022-11-14T09:25:52.083Z,8.77
2022-11-14T09:28:39.854Z,8.77
2022-11-14T09:31:27.297Z,8.67
2022-11-14T09:34:14.705Z,8.88
2022-11-14T09:37:02.802Z,9.16
2022-11-14T09:39:50.270Z,8.97
2022-11-14T09:43:05.226Z,9.17
2022-11-14T09:45:54.293Z,9.05
2022-11-14T09:48:41.890Z,9.09
2022-11-14T09:51:32.579Z,9.54
2022-11-14T09:54:31.653Z,9.37
2022-11-14T09:57:21.147Z,9.16
2022-11-14T10:00:16.185Z,9.26
2022-11-14T10:03:33.458Z,9.15
2022-11-14T10:06:38.556Z,9.47
2022-11-14T10:09:50.536Z,9.44
2022-11-14T10:13:00.564Z,9.44
2022-11-14T10:15:51.063Z,9.67
2022-11-14T10:19:15.562Z,9.45
2022-11-14T10:22:11.691Z,9.36
2022-11-14T10:25:21.886Z,9.57
2022-11-14T10:28:30.773Z,9.75
2022-11-14T10:31:37.486Z,9.80
2022-11-14T10:34:28.305Z,9.95
2022-11-14T10:37:24.830Z,9.88
2022-11-14T10:43:29.732Z,10.18
2022-11-14T10:46:20.088Z,10.34
2022-11-14T10:49:24.356Z,10.17
2022-11-14T10:52:17.445Z,10.50
2022-11-14T10:55:17.100Z,10.51
2022-11-14T10:58:16.253Z,10.65
2022-11-14T11:01:40.884Z,10.74
2022-11-14T11:04:31.358Z,10.61
2022-11-14T11:07:42.694Z,10.47
2022-11-14T11:10:49.528Z,10.77
2022-11-14T11:13:40.030Z,10.61
2022-11-14T11:16:29.890Z,10.27
2022-11-14T11:19:29.929Z,10.11
2022-11-14T11:22:39.879Z,10.02
2022-11-14T11:25:30.698Z,9.86
2022-11-14T11:28:22.972Z,9.66
2022-11-14T11:31:12.494Z,9.65
2022-11-14T11:34:03.272Z,9.47
2022-11-14T11:36:53.898Z,9.55
2022-11-14T11:39:44.332Z,9.77
2022-11-14T11:43:23.624Z,9.63
2022-11-14T11:45:28.792Z,9.44
2022-11-14T11:48:24.573Z,9.45
2022-11-14T11:51:17.993Z,9.05
2022-11-14T11:54:18.351Z,9.20
2022-11-14T11:57:08.980Z,9.36
2022-11-14T12:00:01.734Z,9.06
2022-11-14T12:02:52.152Z,9.01
2022-11-14T12:05:58.745Z,9.21
2022-11-14T12:09:21.952Z,9.38
2022-11-14T12:12:18.080Z,9.15
2022-11-14T12:15:32.725Z,8.81
2022-11-14T12:18:47.933Z,8.77
2022-11-14T12:21:58.879Z,8.66
2022-11-14T12:24:57.627Z,9.26
2022-11-14T12:27:56.860Z,8.86
2022-11-14T12:30:47.206Z,9.19
2022-11-14T12:33:37.225Z,9.36
2022-11-14T12:36:28.140Z,9.36
2022-11-14T12:39:31.133Z,9.25
2022-11-14T12:42:21.438Z,9.43
2022-11-14T12:45:28.832Z,9.58
2022-11-14T12:48:30.595Z,9.75
2022-11-14T12:51:30.180Z,9.24
2022-11-14T12:54:45.308Z,9.06
2022-11-14T12:57:47.753Z,9.22
2022-11-14T13:00:38.533Z,9.29
2022-11-14T13:03:29.683Z,9.29
2022-11-14T13:06:35.027Z,9.19
2022-11-14T13:09:28.023Z,9.31
2022-11-14T13:15:49.152Z,9.55
2022-11-14T13:18:53.716Z,9.45
2022-11-14T13:21:47.348Z,9.45
2022-11-14T13:25:03.016Z,9.52
2022-11-14T13:28:07.291Z,9.70
2022-11-14T13:31:07.623Z,9.74
2022-11-14T13:34:00.402Z,9.74
2022-11-14T13:37:13.005Z,9.84
2022-11-14T13:40:11.928Z,9.58
2022-11-14T13:43:34.032Z,9.39
2022-11-14T13:46:36.399Z,9.44
2022-11-14T13:49:32.463Z,9.23
2022-11-14T13:52:20.647Z,9.34
2022-11-14T13:55:08.332Z,9.22
2022-11-14T13:58:10.673Z,9.21
2022-11-14T14:01:27.859Z,9.38
2022-11-14T14:04:50.953Z,9.19
2022-11-14T14:08:12.513Z,9.21
2022-11-14T14:11:05.703Z,9.08
2022-11-14T14:13:56.308Z,9.16
2022-11-14T14:16:49.919Z,9.22
2022-11-14T14:20:13.493Z,9.43
2022-11-14T14:23:09.662Z,9.07
2022-11-14T14:26:02.933Z,9.14
2022-11-14T14:29:06.354Z,9.14
2022-11-14T14:31:53.879Z,9.43
2022-11-14T14:34:42.807Z,9.43
2022-11-14T14:37:32.278Z,9.54
2022-11-14T14:40:38.126Z,9.50
2022-11-14T14:43:28.574Z,9.38
2022-11-14T14:46:15.947Z,9.45
2022-11-14T14:49:05.322Z,9.29
2022-11-14T14:51:58.101Z,9.61
2022-11-14T14:54:42.522Z,9.61
2022-11-14T14:57:31.563Z,9.60
2022-11-14T15:00:26.739Z,9.44
2022-11-14T15:03:14.500Z,9.44
2022-11-14T15:06:04.300Z,9.54
2022-11-14T15:08:51.814Z,9.61
2022-11-14T15:11:42.396Z,9.64
2022-11-14T15:14:35.741Z,9.61
2022-11-14T15:17:24.945Z,9.56
2022-11-14T15:20:29.657Z,9.65
2022-11-14T15:23:21.856Z,9.80
2022-11-14T15:26:20.288Z,9.71
2022-11-14T15:29:21.392Z,9.33
2022-11-14T15:32:20.412Z,9.24
2022-11-14T15:35:11.786Z,9.05
2022-11-14T15:38:43.469Z,9.12
2022-11-14T15:41:23.086Z,9.14
2022-11-14T15:44:34.211Z,8.98
2022-11-14T15:47:30.596Z,8.93
2022-11-14T15:50:21.065Z,9.04
2022-11-14T15:53:23.804Z,9.01
2022-11-14T15:56:14.895Z,8.96
2022-11-14T15:59:02.960Z,8.65
2022-11-14T16:01:54.213Z,8.69
2022-11-14T16:04:47.218Z,8.60
2022-11-14T16:07:31.318Z,8.76
2022-11-14T16:10:21.242Z,8.59
2022-11-14T16:13:08.828Z,8.59
2022-11-14T16:15:56.522Z,8.68
2022-11-14T16:18:43.713Z,8.44
2022-11-14T16:21:31.746Z,8.48
2022-11-14T16:24:22.125Z,8.36
2022-11-14T16:27:09.845Z,8.32
2022-11-14T16:29:57.367Z,8.20
2022-11-14T16:32:46.954Z,8.07
2022-11-14T16:35:34.914Z,8.13
2022-11-14T16:38:22.022Z,7.92
2022-11-14T16:41:11.967Z,8.02
2022-11-14T16:43:59.394Z,8.03
2022-11-14T16:46:47.218Z,8.11
2022-11-14T16:49:34.619Z,8.24
2022-11-14T16:52:22.044Z,8.20
2022-11-14T16:55:10.597Z,8.40
2022-11-14T16:57:58.292Z,8.43
2022-11-14T17:00:45.809Z,8.40
2022-11-14T17:03:34.092Z,8.37
2022-11-14T17:06:21.332Z,8.29
2022-11-14T17:09:09.078Z,8.47
2022-11-14T17:11:56.530Z,8.42
2022-11-14T17:14:43.700Z,8.50
2022-11-14T17:17:32.304Z,8.54
2022-11-14T17:20:19.477Z,8.66
2022-11-14T17:23:07.025Z,8.67
2022-11-14T17:25:54.172Z,8.79
2022-11-14T17:28:43.112Z,8.71
2022-11-14T17:31:35.117Z,8.77
2022-11-14T17:34:20.962Z,8.86
2022-11-14T17:37:08.465Z,8.98
2022-11-14T17:39:55.785Z,8.98
2022-11-14T17:42:43.286Z,8.87
2022-11-14T17:45:30.845Z,8.77
2022-11-14T17:48:18.587Z,8.80
2022-11-14T17:51:10.215Z,8.93
2022-11-14T17:53:57.510Z,8.78
2022-11-14T17:56:49.657Z,8.58
2022-11-14T17:59:36.335Z,8.60
2022-11-14T18:02:23.267Z,8.56
2022-11-14T18:05:09.522Z,8.68
2022-11-14T18:07:57.020Z,8.58
2022-11-14T18:10:45.455Z,8.68
2022-11-14T18:13:33.032Z,8.59
2022-11-14T18:16:21.421Z,8.48
2022-11-14T18:19:08.674Z,8.35
2022-11-14T18:21:56.265Z,8.50
2022-11-14T18:24:44.842Z,8.52
2022-11-14T18:27:32.183Z,8.68
2022-11-14T18:30:40.372Z,8.62
2022-11-14T18:33:08.834Z,8.56
2022-11-14T18:36:00.056Z,8.31
2022-11-14T18:38:47.694Z,8.23
2022-11-14T18:41:35.394Z,8.33
2022-11-14T18:44:24.130Z,8.30
2022-11-14T18:47:11.587Z,8.10
2022-11-14T18:50:00.818Z,8.01
2022-11-14T18:52:48.601Z,8.05
2022-11-14T18:55:40.576Z,8.05
2022-11-14T18:58:27.983Z,7.80
2022-11-14T19:01:22.970Z,7.69
2022-11-14T19:04:12.880Z,7.65
2022-11-14T19:07:01.041Z,7.68
2022-11-14T19:09:48.327Z,7.68
2022-11-14T19:12:35.654Z,7.62
2022-11-14T19:15:23.076Z,7.66
2022-11-14T19:18:11.765Z,7.55
2022-11-14T19:21:00.874Z,7.50
2022-11-14T19:23:50.274Z,7.49
2022-11-14T19:26:37.801Z,7.49
2022-11-14T19:29:25.307Z,7.39
2022-11-14T19:32:13.086Z,7.50
2022-11-14T19:35:00.635Z,7.48
2022-11-14T19:37:48.284Z,7.42
2022-11-14T19:40:40.277Z,7.23
2022-11-14T19:43:28.078Z,7.40
2022-11-14T19:46:20.707Z,7.39
2022-11-14T19:49:08.272Z,7.26
2022-11-14T19:51:55.824Z,7.46
2022-11-14T19:57:49.727Z,7.39
2022-11-14T20:00:37.835Z,7.46
2022-11-14T20:03:25.608Z,7.69
2022-11-14T20:06:18.750Z,7.69
2022-11-14T20:09:09.231Z,7.65
2022-11-14T20:11:56.813Z,7.53
2022-11-14T20:14:44.400Z,7.48
2022-11-14T20:17:33.234Z,7.46
2022-11-14T20:20:20.683Z,7.45
2022-11-14T20:23:07.978Z,7.50
2022-11-14T20:25:57.099Z,7.27
2022-11-14T20:28:46.635Z,7.29
2022-11-14T20:31:33.886Z,7.32
2022-11-14T20:34:21.098Z,7.34
2022-11-14T20:37:11.365Z,7.42
2022-11-14T20:39:57.550Z,7.53
2022-11-14T20:42:49.074Z,7.53
2022-11-14T20:45:36.479Z,7.40
2022-11-14T20:48:24.616Z,7.71
2022-11-14T20:51:21.068Z,7.75
2022-11-14T20:54:10.498Z,7.85
2022-11-14T20:56:57.879Z,7.79
2022-11-14T20:59:45.151Z,7.74
2022-11-14T21:02:33.777Z,7.76
2022-11-14T21:05:20.666Z,7.95
2022-11-14T21:08:10.021Z,7.87
2022-11-14T21:11:02.962Z,7.95
2022-11-14T21:13:59.304Z,8.11
2022-11-14T21:16:46.499Z,8.06
2022-11-14T21:19:33.894Z,8.16
2022-11-14T21:22:21.403Z,8.23
2022-11-14T21:25:09.217Z,8.13
2022-11-14T21:27:57.057Z,8.26
2022-11-14T21:30:45.126Z,8.25
2022-11-14T21:33:32.884Z,8.14
2022-11-14T21:39:11.684Z,8.33
2022-11-14T21:41:59.056Z,8.37
2022-11-14T21:44:46.498Z,8.34
2022-11-14T21:47:35.212Z,8.44
2022-11-14T21:50:22.526Z,8.40
2022-11-14T21:53:11.718Z,8.45
2022-11-14T21:55:59.710Z,8.45
2022-11-14T21:58:47.304Z,8.24
2022-11-14T22:01:52.876Z,8.35
2022-11-14T22:04:40.348Z,8.42
2022-11-14T22:07:28.206Z,8.51
2022-11-14T22:10:15.634Z,8.42
2022-11-14T22:13:03.134Z,8.47
2022-11-14T22:15:50.871Z,8.61
2022-11-14T22:18:38.674Z,8.49
2022-11-14T22:21:26.719Z,8.44
2022-11-14T22:24:14.685Z,8.72
2022-11-14T22:27:02.048Z,8.62
2022-11-14T22:29:49.535Z,8.53
2022-11-14T22:32:36.642Z,8.60
2022-11-14T22:35:24.063Z,8.44
2022-11-14T22:38:11.264Z,8.55
2022-11-14T22:40:59.582Z,8.36
2022-11-14T22:43:47.357Z,8.36
2022-11-14T22:46:34.732Z,8.44
2022-11-14T22:49:22.273Z,8.33
2022-11-14T22:52:11.180Z,8.36
2022-11-14T22:54:58.952Z,8.27
2022-11-14T22:57:46.375Z,8.29
2022-11-14T23:00:34.052Z,8.37
2022-11-14T23:03:22.868Z,8.49
2022-11-14T23:06:13.716Z,8.45
2022-11-14T23:09:02.616Z,8.40
2022-11-14T23:11:50.261Z,8.65
2022-11-14T23:14:37.702Z,8.62
2022-11-14T23:17:25.484Z,8.54
2022-11-14T23:20:16.572Z,8.71
2022-11-14T23:23:04.532Z,8.72
2022-11-14T23:25:51.988Z,8.83
2022-11-14T23:28:40.092Z,8.92
2022-11-14T23:31:27.543Z,8.82
2022-11-14T23:34:14.923Z,8.91
2022-11-14T23:37:02.715Z,8.89
2022-11-14T23:39:49.826Z,8.76
2022-11-14T23:42:37.278Z,8.66
2022-11-14T23:45:23.371Z,8.89
2022-11-14T23:48:10.942Z,8.84
2022-11-14T23:50:58.584Z,8.94
2022-11-14T23:53:47.253Z,8.88
2022-11-14T23:56:35.086Z,8.78
2022-11-14T23:59:22.687Z,8.93
